Terminal Aerodrome Forecast
Issued by NWS

Home | Current Version | Previous Version | Text Only | Print | Product List | Glossary On
Versions: 1 2 3 4 5 6 7 8 9 10 11 12 13 14 15 16 17 18 19 20 21 22 23 24
000
FTUS44 KOUN 231132
TAFPNC
TAF
KPNC 231132Z 2312/2412 34010KT P6SM SCT025 BKN250
     FM231500 03015G24KT P6SM BKN040
      TEMPO 2315/2318 BKN025
     FM240000 04010KT P6SM BKN100=

USA.gov is the U.S. government's official web portal to all federal, state and local government web resources and services.